sensor_id;sensor_type;location;lat;lon;timestamp;pressure;altitude;pressure_sealevel;temperature;humidity
141;BME280;65;48.778;9.160;2022-12-07T00:01:26;98633.97;;;3.33;100.00
141;BME280;65;48.778;9.160;2022-12-07T00:03:53;98626.03;;;3.37;100.00
141;BME280;65;48.778;9.160;2022-12-07T00:06:20;98626.03;;;3.37;100.00
141;BME280;65;48.778;9.160;2022-12-07T00:08:46;98626.75;;;3.42;100.00
141;BME280;65;48.778;9.160;2022-12-07T00:11:18;98628.50;;;3.42;100.00
141;BME280;65;48.778;9.160;2022-12-07T00:13:44;98630.13;;;3.46;100.00
141;BME280;65;48.778;9.160;2022-12-07T00:16:15;98630.06;;;3.49;100.00
141;BME280;65;48.778;9.160;2022-12-07T00:18:43;98630.94;;;3.49;100.00
141;BME280;65;48.778;9.160;2022-12-07T00:21:23;98626.66;;;3.47;100.00
141;BME280;65;48.778;9.160;2022-12-07T00:23:51;98627.56;;;3.44;100.00
141;BME280;65;48.778;9.160;2022-12-07T00:26:25;98626.69;;;3.44;100.00
141;BME280;65;48.778;9.160;2022-12-07T00:28:52;98627.66;;;3.41;100.00
141;BME280;65;48.778;9.160;2022-12-07T00:31:20;98627.66;;;3.41;100.00
141;BME280;65;48.778;9.160;2022-12-07T00:33:46;98626.75;;;3.42;100.00
141;BME280;65;48.778;9.160;2022-12-07T00:36:17;98624.91;;;3.47;100.00
141;BME280;65;48.778;9.160;2022-12-07T00:38:42;98621.53;;;3.42;100.00
141;BME280;65;48.778;9.160;2022-12-07T00:41:16;98626.69;;;3.44;100.00
141;BME280;65;48.778;9.160;2022-12-07T00:43:43;98621.47;;;3.44;100.00
141;BME280;65;48.778;9.160;2022-12-07T00:46:09;98626.56;;;3.50;100.00
141;BME280;65;48.778;9.160;2022-12-07T00:48:35;98618.91;;;3.42;100.00
141;BME280;65;48.778;9.160;2022-12-07T00:51:02;98622.59;;;3.35;100.00
141;BME280;65;48.778;9.160;2022-12-07T00:53:27;98619.09;;;3.36;100.00
141;BME280;65;48.778;9.160;2022-12-07T00:55:53;98622.59;;;3.35;100.00
141;BME280;65;48.778;9.160;2022-12-07T00:58:19;98620.88;;;3.34;100.00
141;BME280;65;48.778;9.160;2022-12-07T01:00:45;98619.22;;;3.32;100.00
141;BME280;65;48.778;9.160;2022-12-07T01:03:12;98620.06;;;3.32;100.00
141;BME280;65;48.778;9.160;2022-12-07T01:05:38;98628.03;;;3.28;100.00
141;BME280;65;48.778;9.160;2022-12-07T01:08:05;98622.84;;;3.26;100.00
141;BME280;65;48.778;9.160;2022-12-07T01:10:30;98620.34;;;3.22;100.00
141;BME280;65;48.778;9.160;2022-12-07T01:12:57;98626.44;;;3.22;100.00
141;BME280;65;48.778;9.160;2022-12-07T01:15:23;98620.47;;;3.17;100.00
141;BME280;65;48.778;9.160;2022-12-07T01:17:48;98626.66;;;3.14;100.00
141;BME280;65;48.778;9.160;2022-12-07T01:20:14;98628.22;;;3.20;100.00
141;BME280;65;48.778;9.160;2022-12-07T01:22:42;98623.19;;;3.14;100.00
141;BME280;65;48.778;9.160;2022-12-07T01:25:09;98626.69;;;3.13;100.00
141;BME280;65;48.778;9.160;2022-12-07T01:27:35;98631.16;;;3.08;100.00
141;BME280;65;48.778;9.160;2022-12-07T01:30:01;98629.47;;;3.07;100.00
141;BME280;65;48.778;9.160;2022-12-07T01:32:26;98626.94;;;3.04;100.00
141;BME280;65;48.778;9.160;2022-12-07T01:34:52;98632.22;;;3.01;100.00
141;BME280;65;48.778;9.160;2022-12-07T01:37:18;98638.22;;;3.04;100.00
141;BME280;65;48.778;9.160;2022-12-07T01:39:43;98640.03;;;3.02;100.00
141;BME280;65;48.778;9.160;2022-12-07T01:42:10;98640.06;;;3.01;100.00
141;BME280;65;48.778;9.160;2022-12-07T01:47:53;98633.41;;;2.89;100.00
141;BME280;65;48.778;9.160;2022-12-07T01:50:21;98644.53;;;2.96;100.00
141;BME280;65;48.778;9.160;2022-12-07T01:52:50;98640.13;;;2.98;100.00
141;BME280;65;48.778;9.160;2022-12-07T01:55:16;98640.19;;;2.96;100.00
141;BME280;65;48.778;9.160;2022-12-07T01:57:49;98636.59;;;3.00;100.00
141;BME280;65;48.778;9.160;2022-12-07T02:00:16;98640.06;;;3.01;100.00
141;BME280;65;48.778;9.160;2022-12-07T02:02:53;98637.53;;;2.98;100.00
141;BME280;65;48.778;9.160;2022-12-07T02:05:19;98635.97;;;2.91;100.00
141;BME280;65;48.778;9.160;2022-12-07T02:07:46;98645.53;;;2.92;100.00
141;BME280;65;48.778;9.160;2022-12-07T02:10:16;98638.59;;;2.91;100.00
141;BME280;65;48.778;9.160;2022-12-07T02:12:42;98641.19;;;2.91;100.00
141;BME280;65;48.778;9.160;2022-12-07T02:15:10;98633.41;;;2.89;100.00
141;BME280;65;48.778;9.160;2022-12-07T02:20:33;98636.63;;;2.99;100.00
141;BME280;65;48.778;9.160;2022-12-07T02:23:14;98628.91;;;2.94;100.00
141;BME280;65;48.778;9.160;2022-12-07T02:28:29;98623.66;;;2.96;100.00
141;BME280;65;48.778;9.160;2022-12-07T02:31:10;98624.44;;;2.99;100.00
141;BME280;65;48.778;9.160;2022-12-07T02:33:42;98622.75;;;2.97;100.00
141;BME280;65;48.778;9.160;2022-12-07T02:38:48;98614.66;;;3.07;100.00
141;BME280;65;48.778;9.160;2022-12-07T02:41:29;98614.47;;;3.13;100.00
141;BME280;65;48.778;9.160;2022-12-07T02:44:02;98613.88;;;3.04;100.00
141;BME280;65;48.778;9.160;2022-12-07T02:46:37;98620.69;;;3.09;100.00
141;BME280;65;48.778;9.160;2022-12-07T02:49:05;98608.66;;;3.04;100.00
141;BME280;65;48.778;9.160;2022-12-07T02:51:32;98611.31;;;3.02;100.00
141;BME280;65;48.778;9.160;2022-12-07T02:53:58;98610.50;;;3.00;100.00
141;BME280;65;48.778;9.160;2022-12-07T02:56:37;98610.44;;;3.02;100.00
141;BME280;65;48.778;9.160;2022-12-07T03:13:44;98597.16;;;3.11;100.00
141;BME280;65;48.778;9.160;2022-12-07T03:16:39;98599.78;;;3.09;100.00
141;BME280;65;48.778;9.160;2022-12-07T03:19:10;98594.66;;;3.06;100.00
141;BME280;65;48.778;9.160;2022-12-07T03:21:44;98592.94;;;3.05;100.00
141;BME280;65;48.778;9.160;2022-12-07T03:24:17;98588.63;;;3.04;100.00
141;BME280;65;48.778;9.160;2022-12-07T03:26:56;98582.66;;;2.99;100.00
141;BME280;65;48.778;9.160;2022-12-07T03:29:29;98594.00;;;2.98;100.00
141;BME280;65;48.778;9.160;2022-12-07T03:32:00;98586.22;;;2.97;100.00
141;BME280;65;48.778;9.160;2022-12-07T03:34:39;98587.00;;;3.00;100.00
141;BME280;65;48.778;9.160;2022-12-07T03:37:24;98589.66;;;2.99;100.00
141;BME280;65;48.778;9.160;2022-12-07T03:42:48;98586.06;;;3.03;100.00
141;BME280;65;48.778;9.160;2022-12-07T03:45:14;98582.47;;;3.07;100.00
141;BME280;65;48.778;9.160;2022-12-07T03:52:59;98581.59;;;3.06;100.00
141;BME280;65;48.778;9.160;2022-12-07T03:55:30;98580.88;;;3.01;100.00
141;BME280;65;48.778;9.160;2022-12-07T03:58:02;98583.53;;;3.00;100.00
141;BME280;65;48.778;9.160;2022-12-07T04:00:29;98574.88;;;2.98;100.00
141;BME280;65;48.778;9.160;2022-12-07T04:02:55;98582.66;;;2.99;100.00
141;BME280;65;48.778;9.160;2022-12-07T04:05:22;98583.69;;;2.94;100.00
141;BME280;65;48.778;9.160;2022-12-07T04:07:48;98574.06;;;2.96;100.00
141;BME280;65;48.778;9.160;2022-12-07T04:10:13;98569.66;;;2.98;100.00
141;BME280;65;48.778;9.160;2022-12-07T04:12:39;98564.44;;;2.98;100.00
141;BME280;65;48.778;9.160;2022-12-07T04:15:05;98562.94;;;2.88;100.00
141;BME280;65;48.778;9.160;2022-12-07T04:17:31;98565.59;;;2.86;100.00
141;BME280;65;48.778;9.160;2022-12-07T04:19:56;98571.75;;;2.83;100.00
141;BME280;65;48.778;9.160;2022-12-07T04:22:21;98563.97;;;2.82;100.00
141;BME280;65;48.778;9.160;2022-12-07T04:25:07;98568.16;;;2.89;100.00
141;BME280;65;48.778;9.160;2022-12-07T04:27:33;98563.97;;;2.82;100.00
141;BME280;65;48.778;9.160;2022-12-07T04:29:58;98553.25;;;2.93;100.00
141;BME280;65;48.778;9.160;2022-12-07T04:32:24;98539.19;;;2.98;100.00
141;BME280;65;48.778;9.160;2022-12-07T04:34:49;98537.44;;;2.99;100.00
141;BME280;65;48.778;9.160;2022-12-07T04:37:30;98533.31;;;2.89;100.00
141;BME280;65;48.778;9.160;2022-12-07T04:39:55;98533.38;;;2.87;100.00
141;BME280;65;48.778;9.160;2022-12-07T04:42:20;98529.91;;;2.86;100.00
141;BME280;65;48.778;9.160;2022-12-07T04:44:46;98531.63;;;2.88;100.00
141;BME280;65;48.778;9.160;2022-12-07T04:47:11;98531.53;;;2.92;100.00
141;BME280;65;48.778;9.160;2022-12-07T04:49:37;98527.28;;;2.86;100.00
141;BME280;65;48.778;9.160;2022-12-07T04:52:05;98533.28;;;2.92;100.00
141;BME280;65;48.778;9.160;2022-12-07T04:54:30;98520.25;;;2.90;100.00
141;BME280;65;48.778;9.160;2022-12-07T04:56:56;98514.31;;;2.83;100.00
141;BME280;65;48.778;9.160;2022-12-07T04:59:21;98517.06;;;2.79;100.00
141;BME280;65;48.778;9.160;2022-12-07T05:01:46;98510.22;;;2.75;100.00
141;BME280;65;48.778;9.160;2022-12-07T05:04:12;98516.56;;;2.65;100.00
141;BME280;65;48.778;9.160;2022-12-07T05:06:37;98521.13;;;2.57;100.00
141;BME280;65;48.778;9.160;2022-12-07T05:09:03;98529.13;;;2.50;100.00
141;BME280;65;48.778;9.160;2022-12-07T05:11:29;98528.28;;;2.50;100.00
141;BME280;65;48.778;9.160;2022-12-07T05:14:09;98533.38;;;2.54;100.00
141;BME280;65;48.778;9.160;2022-12-07T05:16:35;98536.25;;;2.44;100.00
141;BME280;65;48.778;9.160;2022-12-07T05:19:01;98542.66;;;2.29;100.00
141;BME280;65;48.778;9.160;2022-12-07T05:21:27;98540.28;;;2.20;100.00
141;BME280;65;48.778;9.160;2022-12-07T05:23:53;98536.91;;;2.16;99.64
141;BME280;65;48.778;9.160;2022-12-07T05:26:18;98530.78;;;2.17;100.00
141;BME280;65;48.778;9.160;2022-12-07T05:28:44;98539.44;;;2.19;99.94
141;BME280;65;48.778;9.160;2022-12-07T05:31:09;98554.34;;;2.14;99.55
141;BME280;65;48.778;9.160;2022-12-07T05:33:35;98559.00;;;2.00;100.00
141;BME280;65;48.778;9.160;2022-12-07T05:36:01;98564.22;;;2.00;100.00
141;BME280;65;48.778;9.160;2022-12-07T05:38:31;98556.50;;;1.96;100.00
141;BME280;65;48.778;9.160;2022-12-07T05:41:00;98563.66;;;1.87;100.00
141;BME280;65;48.778;9.160;2022-12-07T05:43:26;98562.28;;;1.70;100.00
141;BME280;65;48.778;9.160;2022-12-07T05:45:52;98573.09;;;1.51;100.00
141;BME280;65;48.778;9.160;2022-12-07T05:48:17;98575.00;;;1.43;100.00
141;BME280;65;48.778;9.160;2022-12-07T05:50:42;98573.28;;;1.42;100.00
141;BME280;65;48.778;9.160;2022-12-07T05:53:08;98565.34;;;1.48;100.00
141;BME280;65;48.778;9.160;2022-12-07T05:55:33;98575.88;;;1.44;100.00
141;BME280;65;48.778;9.160;2022-12-07T05:57:58;98583.72;;;1.42;100.00
141;BME280;65;48.778;9.160;2022-12-07T06:00:42;98592.34;;;1.44;100.00
141;BME280;65;48.778;9.160;2022-12-07T06:03:08;98581.91;;;1.46;100.00
141;BME280;65;48.778;9.160;2022-12-07T06:05:33;98572.97;;;1.57;100.00
141;BME280;65;48.778;9.160;2022-12-07T06:07:58;98570.09;;;1.70;100.00
141;BME280;65;48.778;9.160;2022-12-07T06:10:24;98567.16;;;1.86;100.00
141;BME280;65;48.778;9.160;2022-12-07T06:12:49;98565.28;;;1.92;100.00
141;BME280;65;48.778;9.160;2022-12-07T06:15:15;98563.34;;;2.01;100.00
141;BME280;65;48.778;9.160;2022-12-07T06:17:40;98563.16;;;2.09;100.00
141;BME280;65;48.778;9.160;2022-12-07T06:20:06;98577.09;;;2.08;100.00
141;BME280;65;48.778;9.160;2022-12-07T06:22:32;98584.94;;;2.06;100.00
141;BME280;65;48.778;9.160;2022-12-07T06:24:57;98588.41;;;2.07;100.00
141;BME280;65;48.778;9.160;2022-12-07T06:27:23;98578.72;;;2.12;100.00
141;BME280;65;48.778;9.160;2022-12-07T06:29:48;98576.91;;;2.15;100.00
141;BME280;65;48.778;9.160;2022-12-07T06:32:13;98576.00;;;2.16;100.00
141;BME280;65;48.778;9.160;2022-12-07T06:34:39;98577.72;;;2.17;100.00
141;BME280;65;48.778;9.160;2022-12-07T06:37:04;98582.75;;;2.25;100.00
141;BME280;65;48.778;9.160;2022-12-07T06:39:30;98577.38;;;2.33;100.00
141;BME280;65;48.778;9.160;2022-12-07T06:41:56;98573.69;;;2.41;100.00
141;BME280;65;48.778;9.160;2022-12-07T06:44:22;98565.72;;;2.47;100.00
141;BME280;65;48.778;9.160;2022-12-07T06:46:48;98569.03;;;2.54;100.00
141;BME280;65;48.778;9.160;2022-12-07T06:49:14;98568.88;;;2.60;100.00
141;BME280;65;48.778;9.160;2022-12-07T06:51:40;98566.16;;;2.65;99.68
141;BME280;65;48.778;9.160;2022-12-07T06:54:13;98573.28;;;2.58;100.00
141;BME280;65;48.778;9.160;2022-12-07T06:56:39;98570.72;;;2.57;99.88
141;BME280;65;48.778;9.160;2022-12-07T06:59:05;98571.72;;;2.51;100.00
141;BME280;65;48.778;9.160;2022-12-07T07:01:32;98581.47;;;2.43;98.72
141;BME280;65;48.778;9.160;2022-12-07T07:03:57;98581.59;;;2.38;100.00
141;BME280;65;48.778;9.160;2022-12-07T07:06:23;98585.13;;;2.36;99.93
141;BME280;65;48.778;9.160;2022-12-07T07:08:49;98586.00;;;2.36;97.93
141;BME280;65;48.778;9.160;2022-12-07T07:11:14;98589.09;;;2.52;96.47
141;BME280;65;48.778;9.160;2022-12-07T07:13:40;98582.75;;;2.62;97.64
141;BME280;65;48.778;9.160;2022-12-07T07:16:06;98584.56;;;2.59;98.00
141;BME280;65;48.778;9.160;2022-12-07T07:18:31;98585.13;;;2.71;96.16
141;BME280;65;48.778;9.160;2022-12-07T07:20:58;98597.25;;;2.72;96.24
141;BME280;65;48.778;9.160;2022-12-07T07:23:29;98587.72;;;2.71;96.79
141;BME280;65;48.778;9.160;2022-12-07T07:25:54;98592.25;;;2.65;97.74
141;BME280;65;48.778;9.160;2022-12-07T07:28:20;98598.25;;;2.68;97.40
141;BME280;65;48.778;9.160;2022-12-07T07:30:45;98590.28;;;2.73;97.33
141;BME280;65;48.778;9.160;2022-12-07T07:33:11;98594.56;;;2.75;95.79
141;BME280;65;48.778;9.160;2022-12-07T07:35:38;98600.56;;;2.79;95.44
141;BME280;65;48.778;9.160;2022-12-07T07:38:04;98607.53;;;2.78;95.56
141;BME280;65;48.778;9.160;2022-12-07T07:40:30;98605.88;;;2.76;94.82
141;BME280;65;48.778;9.160;2022-12-07T07:42:56;98599.47;;;2.88;93.51
141;BME280;65;48.778;9.160;2022-12-07T07:45:22;98604.59;;;2.92;94.14
141;BME280;65;48.778;9.160;2022-12-07T07:47:49;98610.53;;;2.99;96.33
141;BME280;65;48.778;9.160;2022-12-07T07:50:16;98606.19;;;2.98;93.65
141;BME280;65;48.778;9.160;2022-12-07T07:52:42;98605.78;;;3.13;92.39
141;BME280;65;48.778;9.160;2022-12-07T07:55:08;98611.91;;;3.12;91.56
141;BME280;65;48.778;9.160;2022-12-07T07:57:35;98609.06;;;3.21;90.78
141;BME280;65;48.778;9.160;2022-12-07T08:00:03;98603.75;;;3.24;92.53
141;BME280;65;48.778;9.160;2022-12-07T08:02:29;98601.88;;;3.29;92.36
141;BME280;65;48.778;9.160;2022-12-07T08:04:54;98606.91;;;3.35;89.95
141;BME280;65;48.778;9.160;2022-12-07T08:07:20;98605.13;;;3.37;89.38
141;BME280;65;48.778;9.160;2022-12-07T08:09:45;98608.53;;;3.39;89.37
141;BME280;65;48.778;9.160;2022-12-07T08:12:11;98605.25;;;3.33;89.52
141;BME280;65;48.778;9.160;2022-12-07T08:14:42;98608.72;;;3.33;90.12
141;BME280;65;48.778;9.160;2022-12-07T08:17:07;98603.53;;;3.32;90.78
141;BME280;65;48.778;9.160;2022-12-07T08:19:33;98610.25;;;3.40;89.02
141;BME280;65;48.778;9.160;2022-12-07T08:21:58;98610.25;;;3.40;88.57
141;BME280;65;48.778;9.160;2022-12-07T08:24:24;98612.81;;;3.42;87.97
141;BME280;65;48.778;9.160;2022-12-07T08:26:50;98612.69;;;3.48;87.93
141;BME280;65;48.778;9.160;2022-12-07T08:29:16;98611.56;;;3.57;87.51
141;BME280;65;48.778;9.160;2022-12-07T08:31:41;98611.47;;;3.60;87.37
141;BME280;65;48.778;9.160;2022-12-07T08:34:07;98613.03;;;3.67;86.19
141;BME280;65;48.778;9.160;2022-12-07T08:36:32;98620.72;;;3.71;84.54
141;BME280;65;48.778;9.160;2022-12-07T08:38:58;98627.66;;;3.72;86.38
141;BME280;65;48.778;9.160;2022-12-07T08:41:23;98624.09;;;3.75;86.64
141;BME280;65;48.778;9.160;2022-12-07T08:43:48;98625.56;;;3.85;89.75
141;BME280;65;48.778;9.160;2022-12-07T08:46:25;98624.19;;;4.01;82.80
141;BME280;65;48.778;9.160;2022-12-07T08:49:17;98618.88;;;4.04;82.80
141;BME280;65;48.778;9.160;2022-12-07T08:51:45;98619.53;;;4.12;83.12
141;BME280;65;48.778;9.160;2022-12-07T08:54:14;98616.16;;;4.09;82.33
141;BME280;65;48.778;9.160;2022-12-07T08:56:42;98618.88;;;4.04;83.68
141;BME280;65;48.778;9.160;2022-12-07T08:59:08;98614.81;;;4.24;82.29
141;BME280;65;48.778;9.160;2022-12-07T09:01:33;98614.56;;;4.31;80.76
141;BME280;65;48.778;9.160;2022-12-07T09:03:59;98619.56;;;4.39;80.30
141;BME280;65;48.778;9.160;2022-12-07T09:06:24;98618.38;;;4.49;79.87
141;BME280;65;48.778;9.160;2022-12-07T09:08:53;98620.78;;;4.55;82.17
141;BME280;65;48.778;9.160;2022-12-07T09:11:21;98615.66;;;4.52;80.92
141;BME280;65;48.778;9.160;2022-12-07T09:13:47;98619.78;;;4.59;80.48
141;BME280;65;48.778;9.160;2022-12-07T09:16:12;98627.00;;;4.79;81.55
141;BME280;65;48.778;9.160;2022-12-07T09:18:37;98626.75;;;4.87;77.83
141;BME280;65;48.778;9.160;2022-12-07T09:21:03;98622.56;;;4.81;78.25
141;BME280;65;48.778;9.160;2022-12-07T09:23:29;98624.13;;;4.87;78.56
141;BME280;65;48.778;9.160;2022-12-07T09:25:54;98619.53;;;4.93;79.32
141;BME280;65;48.778;9.160;2022-12-07T09:28:20;98614.69;;;5.07;76.59
141;BME280;65;48.778;9.160;2022-12-07T09:30:48;98617.09;;;5.14;77.38
141;BME280;65;48.778;9.160;2022-12-07T09:33:14;98614.09;;;5.26;76.14
141;BME280;65;48.778;9.160;2022-12-07T09:35:47;98614.28;;;5.45;74.66
141;BME280;65;48.778;9.160;2022-12-07T09:38:14;98616.78;;;5.48;75.90
141;BME280;65;48.778;9.160;2022-12-07T09:40:40;98617.81;;;5.44;74.72
141;BME280;65;48.778;9.160;2022-12-07T09:43:20;98610.84;;;5.43;76.04
141;BME280;65;48.778;9.160;2022-12-07T09:45:48;98619.41;;;5.48;74.37
141;BME280;65;48.778;9.160;2022-12-07T09:48:27;98614.13;;;5.49;75.79
141;BME280;65;48.778;9.160;2022-12-07T09:50:55;98610.13;;;5.39;75.69
141;BME280;65;48.778;9.160;2022-12-07T09:53:32;98608.13;;;5.46;76.19
141;BME280;65;48.778;9.160;2022-12-07T09:55:59;98611.50;;;5.24;77.12
141;BME280;65;48.778;9.160;2022-12-07T09:58:28;98609.03;;;5.45;78.58
141;BME280;65;48.778;9.160;2022-12-07T10:03:32;98594.78;;;5.52;77.29
141;BME280;65;48.778;9.160;2022-12-07T10:05:57;98593.75;;;5.32;77.05
141;BME280;65;48.778;9.160;2022-12-07T10:08:28;98596.09;;;5.40;78.46
141;BME280;65;48.778;9.160;2022-12-07T10:10:56;98586.81;;;5.31;78.26
141;BME280;65;48.778;9.160;2022-12-07T10:13:46;98592.09;;;5.30;77.60
141;BME280;65;48.778;9.160;2022-12-07T10:16:37;98581.22;;;5.16;79.43
141;BME280;65;48.778;9.160;2022-12-07T10:19:29;98575.34;;;5.09;80.88
141;BME280;65;48.778;9.160;2022-12-07T10:24:30;98573.69;;;5.31;78.84
141;BME280;65;48.778;9.160;2022-12-07T10:26:56;98576.22;;;5.34;78.51
141;BME280;65;48.778;9.160;2022-12-07T10:29:30;98570.69;;;5.42;82.36
141;BME280;65;48.778;9.160;2022-12-07T10:34:40;98565.75;;;6.05;78.14
141;BME280;65;48.778;9.160;2022-12-07T10:39:52;98567.88;;;6.17;75.32
141;BME280;65;48.778;9.160;2022-12-07T10:42:29;98563.31;;;6.00;76.24
141;BME280;65;48.778;9.160;2022-12-07T10:45:16;98560.72;;;5.75;81.34
141;BME280;65;48.778;9.160;2022-12-07T10:47:48;98570.84;;;5.37;84.13
141;BME280;65;48.778;9.160;2022-12-07T10:50:48;98567.66;;;5.53;82.25
141;BME280;65;48.778;9.160;2022-12-07T11:04:29;98539.06;;;5.47;81.26
141;BME280;65;48.778;9.160;2022-12-07T11:07:22;98542.19;;;5.33;81.20
141;BME280;65;48.778;9.160;2022-12-07T11:13:21;98537.94;;;5.30;81.44
141;BME280;65;48.778;9.160;2022-12-07T11:15:24;98539.84;;;5.25;82.28
141;BME280;65;48.778;9.160;2022-12-07T11:18:06;98531.09;;;5.26;84.68
141;BME280;65;48.778;9.160;2022-12-07T11:31:29;98527.00;;;5.18;85.45
141;BME280;65;48.778;9.160;2022-12-07T11:34:10;98520.84;;;5.20;83.98
141;BME280;65;48.778;9.160;2022-12-07T11:36:43;98527.22;;;5.12;83.80
141;BME280;65;48.778;9.160;2022-12-07T11:41:49;98508.84;;;5.13;85.03
141;BME280;65;48.778;9.160;2022-12-07T11:44:34;98504.09;;;5.24;84.65
141;BME280;65;48.778;9.160;2022-12-07T11:47:11;98508.00;;;5.36;84.80
141;BME280;65;48.778;9.160;2022-12-07T11:50:01;98504.44;;;5.14;87.24
141;BME280;65;48.778;9.160;2022-12-07T11:52:33;98495.72;;;5.13;87.71
141;BME280;65;48.778;9.160;2022-12-07T11:55:05;98504.63;;;5.09;87.61
141;BME280;65;48.778;9.160;2022-12-07T11:57:43;98500.41;;;5.05;89.60
141;BME280;65;48.778;9.160;2022-12-07T12:00:15;98498.56;;;5.07;91.37
141;BME280;65;48.778;9.160;2022-12-07T12:02:49;98502.56;;;4.94;92.19
141;BME280;65;48.778;9.160;2022-12-07T12:05:17;98494.22;;;4.83;93.97
141;BME280;65;48.778;9.160;2022-12-07T12:07:44;98502.03;;;4.84;94.94
141;BME280;65;48.778;9.160;2022-12-07T12:10:22;98495.72;;;4.90;94.06
141;BME280;65;48.778;9.160;2022-12-07T12:23:22;98491.41;;;4.62;96.25
141;BME280;65;48.778;9.160;2022-12-07T12:25:52;98497.44;;;4.66;96.55
141;BME280;65;48.778;9.160;2022-12-07T12:31:16;98491.19;;;4.70;98.01
141;BME280;65;48.778;9.160;2022-12-07T12:33:56;98493.53;;;4.78;98.03
141;BME280;65;48.778;9.160;2022-12-07T12:51:56;98481.03;;;5.09;91.48
141;BME280;65;48.778;9.160;2022-12-07T12:54:23;98476.44;;;5.16;90.56
141;BME280;65;48.778;9.160;2022-12-07T12:57:05;98469.19;;;4.99;92.29
141;BME280;65;48.778;9.160;2022-12-07T12:59:32;98473.09;;;4.87;92.65
141;BME280;65;48.778;9.160;2022-12-07T13:28:54;98445.38;;;5.05;88.82
141;BME280;65;48.778;9.160;2022-12-07T13:31:33;98443.69;;;5.04;88.08
141;BME280;65;48.778;9.160;2022-12-07T13:33:59;98445.63;;;4.99;87.84
141;BME280;65;48.778;9.160;2022-12-07T13:36:27;98443.50;;;5.08;87.59
141;BME280;65;48.778;9.160;2022-12-07T13:39:17;98441.50;;;5.15;87.14
141;BME280;65;48.778;9.160;2022-12-07T13:41:43;98438.78;;;5.18;86.53
141;BME280;65;48.778;9.160;2022-12-07T13:44:19;98436.34;;;5.14;86.47
141;BME280;65;48.778;9.160;2022-12-07T13:49:38;98438.50;;;5.02;87.15
141;BME280;65;48.778;9.160;2022-12-07T13:52:24;98439.25;;;5.06;88.70
141;BME280;65;48.778;9.160;2022-12-07T13:57:26;98435.72;;;5.07;87.65
141;BME280;65;48.778;9.160;2022-12-07T13:59:58;98434.91;;;5.05;86.88
141;BME280;65;48.778;9.160;2022-12-07T14:02:32;98433.66;;;4.92;86.55
141;BME280;65;48.778;9.160;2022-12-07T14:05:24;98434.06;;;4.81;87.52
141;BME280;65;48.778;9.160;2022-12-07T14:10:27;98437.00;;;4.72;88.10
141;BME280;65;48.778;9.160;2022-12-07T14:12:53;98431.59;;;4.76;88.81
141;BME280;65;48.778;9.160;2022-12-07T14:15:24;98428.31;;;4.71;88.79
141;BME280;65;48.778;9.160;2022-12-07T14:17:52;98430.84;;;4.73;89.20
141;BME280;65;48.778;9.160;2022-12-07T14:20:39;98431.88;;;4.69;90.49
141;BME280;65;48.778;9.160;2022-12-07T14:23:24;98435.66;;;4.60;91.90
141;BME280;65;48.778;9.160;2022-12-07T14:25:51;98434.38;;;4.47;90.76
141;BME280;65;48.778;9.160;2022-12-07T14:28:43;98431.97;;;4.41;93.45
141;BME280;65;48.778;9.160;2022-12-07T14:31:18;98431.22;;;4.37;92.02
141;BME280;65;48.778;9.160;2022-12-07T14:33:45;98428.97;;;4.27;91.56
141;BME280;65;48.778;9.160;2022-12-07T14:36:13;98424.66;;;4.26;92.38
141;BME280;65;48.778;9.160;2022-12-07T14:38:58;98431.59;;;4.27;92.22
141;BME280;65;48.778;9.160;2022-12-07T14:41:36;98431.28;;;4.36;91.70
141;BME280;65;48.778;9.160;2022-12-07T14:44:22;98432.28;;;4.32;93.92
141;BME280;65;48.778;9.160;2022-12-07T14:46:49;98434.09;;;4.30;93.60
141;BME280;65;48.778;9.160;2022-12-07T14:49:15;98433.09;;;4.34;93.19
141;BME280;65;48.778;9.160;2022-12-07T14:51:41;98430.78;;;4.25;96.10
141;BME280;65;48.778;9.160;2022-12-07T14:54:15;98438.59;;;4.26;95.67
141;BME280;65;48.778;9.160;2022-12-07T14:56:41;98432.25;;;4.33;93.34
141;BME280;65;48.778;9.160;2022-12-07T14:59:07;98438.53;;;4.28;94.18
141;BME280;65;48.778;9.160;2022-12-07T15:01:32;98441.25;;;4.25;95.43
141;BME280;65;48.778;9.160;2022-12-07T15:04:03;98446.44;;;4.26;95.88
141;BME280;65;48.778;9.160;2022-12-07T15:06:29;98438.94;;;4.16;97.15
141;BME280;65;48.778;9.160;2022-12-07T15:08:55;98435.47;;;4.15;96.54
141;BME280;65;48.778;9.160;2022-12-07T15:11:26;98437.25;;;4.15;96.10
141;BME280;65;48.778;9.160;2022-12-07T15:13:52;98442.56;;;4.11;95.68
141;BME280;65;48.778;9.160;2022-12-07T15:16:37;98441.94;;;4.05;96.92
141;BME280;65;48.778;9.160;2022-12-07T15:19:05;98443.75;;;4.01;95.75
141;BME280;65;48.778;9.160;2022-12-07T15:21:31;98440.50;;;3.95;96.59
141;BME280;65;48.778;9.160;2022-12-07T15:23:56;98443.09;;;3.95;96.82
141;BME280;65;48.778;9.160;2022-12-07T15:26:21;98440.69;;;3.89;97.71
141;BME280;65;48.778;9.160;2022-12-07T15:28:47;98441.75;;;3.83;99.32
141;BME280;65;48.778;9.160;2022-12-07T15:31:16;98437.53;;;3.79;97.92
141;BME280;65;48.778;9.160;2022-12-07T15:33:48;98436.91;;;3.71;98.71
141;BME280;65;48.778;9.160;2022-12-07T15:36:25;98445.56;;;3.73;97.49
141;BME280;65;48.778;9.160;2022-12-07T15:38:51;98443.84;;;3.72;97.32
141;BME280;65;48.778;9.160;2022-12-07T15:41:17;98444.66;;;3.74;98.38
141;BME280;65;48.778;9.160;2022-12-07T15:43:43;98437.91;;;3.67;99.25
141;BME280;65;48.778;9.160;2022-12-07T15:46:31;98439.47;;;3.72;97.66
141;BME280;65;48.778;9.160;2022-12-07T15:48:57;98434.16;;;3.75;97.63
141;BME280;65;48.778;9.160;2022-12-07T15:51:22;98436.00;;;3.72;97.53
141;BME280;65;48.778;9.160;2022-12-07T15:53:54;98435.25;;;3.68;97.93
141;BME280;65;48.778;9.160;2022-12-07T15:56:20;98439.09;;;3.57;98.23
141;BME280;65;48.778;9.160;2022-12-07T15:58:45;98433.22;;;3.50;98.27
141;BME280;65;48.778;9.160;2022-12-07T16:01:16;98429.81;;;3.48;98.85
141;BME280;65;48.778;9.160;2022-12-07T16:03:42;98438.50;;;3.48;98.87
141;BME280;65;48.778;9.160;2022-12-07T16:06:08;98428.97;;;3.46;99.00
141;BME280;65;48.778;9.160;2022-12-07T16:08:34;98425.25;;;3.55;98.62
141;BME280;65;48.778;9.160;2022-12-07T16:10:59;98420.25;;;3.47;98.51
141;BME280;65;48.778;9.160;2022-12-07T16:13:25;98427.03;;;3.53;98.50
141;BME280;65;48.778;9.160;2022-12-07T16:15:56;98416.59;;;3.53;98.98
141;BME280;65;48.778;9.160;2022-12-07T16:18:21;98420.22;;;3.48;100.00
141;BME280;65;48.778;9.160;2022-12-07T16:20:49;98413.44;;;3.41;99.78
141;BME280;65;48.778;9.160;2022-12-07T16:23:15;98410.00;;;3.39;100.00
141;BME280;65;48.778;9.160;2022-12-07T16:25:41;98411.91;;;3.34;98.95
141;BME280;65;48.778;9.160;2022-12-07T16:28:07;98407.78;;;3.27;98.72
141;BME280;65;48.778;9.160;2022-12-07T16:30:33;98405.16;;;3.27;99.69
141;BME280;65;48.778;9.160;2022-12-07T16:32:58;98409.50;;;3.28;99.12